Terminal Aerodrome Forecast
Issued by NWS Portland, ME

Home | Current Version | Previous Version | Text Only | Print | Product List | Glossary On
Versions: 1 2 3 4 5 6 7 8 9 10 11 12 13 14 15 16 17
710
FTUS41 KGYX 250525
TAFCON
TAF
KCON 250525Z 2506/2606 19005KT P6SM OVC150
     FM251000 16005KT P6SM -RA BKN050 OVC100
      TEMPO 2511/2513 4SM -RA BKN015 OVC025
     FM251300 12005KT 3SM -RA BR BKN015 OVC025
     FM251600 10006KT 3SM -RA BKN007 OVC015=

USA.gov is the U.S. government's official web portal to all federal, state and local government web resources and services.